createdAt,value
2016-12-19T00:00:46.147Z,49.37
2016-12-19T00:01:46.162Z,49.27
2016-12-19T00:02:45.888Z,49.55
2016-12-19T00:03:45.922Z,49.65
2016-12-19T00:04:45.981Z,49.55
2016-12-19T00:05:45.970Z,49.46
2016-12-19T00:06:46.003Z,49.37
2016-12-19T00:07:46.331Z,49.65
2016-12-19T00:08:46.356Z,49.27
2016-12-19T00:09:46.390Z,48.88
2016-12-19T00:10:46.417Z,49.17
2016-12-19T00:11:46.135Z,49.07
2016-12-19T00:12:46.475Z,49.46
2016-12-19T00:13:46.278Z,49.07
2016-12-19T00:14:46.530Z,49.17
2016-12-19T00:15:46.253Z,48.88
2016-12-19T00:16:46.575Z,49.17
2016-12-19T00:17:46.312Z,48.97
2016-12-19T00:18:46.337Z,49.07
2016-12-19T00:19:46.359Z,49.17
2016-12-19T00:20:46.696Z,49.07
2016-12-19T00:21:46.716Z,49.07
2016-12-19T00:22:46.443Z,49.07
2016-12-19T00:23:46.468Z,49.37
2016-12-19T00:24:46.494Z,49.37
2016-12-19T00:25:46.567Z,49.17
2016-12-19T00:26:46.968Z,49.17
2016-12-19T00:27:46.594Z,49.46
2016-12-19T00:28:46.911Z,48.97
2016-12-19T00:29:46.943Z,48.79
2016-12-19T00:30:46.973Z,49.17
2016-12-19T00:31:46.702Z,49.17
2016-12-19T00:32:46.761Z,48.88
2016-12-19T00:33:46.752Z,49.17
2016-12-19T00:34:47.079Z,48.97
2016-12-19T00:35:46.805Z,48.88
2016-12-19T00:36:47.136Z,49.07
2016-12-19T00:37:47.167Z,48.88
2016-12-19T00:38:47.216Z,48.97
2016-12-19T00:39:47.232Z,49.07
2016-12-19T00:40:47.265Z,48.69
2016-12-19T00:41:46.987Z,48.69
2016-12-19T00:42:47.015Z,48.49
2016-12-19T00:43:47.048Z,48.97
2016-12-19T00:44:47.076Z,48.69
2016-12-19T00:45:47.093Z,48.49
2016-12-19T00:46:47.434Z,48.79
2016-12-19T00:47:47.191Z,48.79
2016-12-19T00:48:47.179Z,49.07
2016-12-19T00:49:47.208Z,48.97
2016-12-19T00:50:47.251Z,48.79
2016-12-19T00:51:47.574Z,48.97
2016-12-19T00:52:47.591Z,48.97
2016-12-19T00:53:47.629Z,48.59
2016-12-19T00:54:47.356Z,48.59
2016-12-19T00:55:47.691Z,48.49
2016-12-19T00:56:47.401Z,48.4
2016-12-19T00:57:47.734Z,48.69
2016-12-19T00:58:47.799Z,48.49
2016-12-19T00:59:47.800Z,48.49
2016-12-19T01:00:47.520Z,48.3
2016-12-19T01:01:47.849Z,48.3
2016-12-19T01:02:47.568Z,48.59
2016-12-19T01:03:47.911Z,48.49
2016-12-19T01:04:47.940Z,48.49
2016-12-19T01:05:47.968Z,48.21
2016-12-19T01:06:47.985Z,48.59
2016-12-19T01:07:48.018Z,48.49
2016-12-19T01:08:47.747Z,48.21
2016-12-19T01:09:48.080Z,48.3
2016-12-19T01:10:48.109Z,48.4
2016-12-19T01:11:48.125Z,48.3
2016-12-19T01:12:47.858Z,47.63
2016-12-19T01:13:48.190Z,47.72
2016-12-19T01:14:48.211Z,48.21
2016-12-19T01:15:47.936Z,47.72
2016-12-19T01:16:48.261Z,48.4
2016-12-19T01:17:47.995Z,47.82
2016-12-19T01:18:48.326Z,47.82
2016-12-19T01:19:48.052Z,48.01
2016-12-19T01:20:48.380Z,48.01
2016-12-19T01:21:48.096Z,47.92
2016-12-19T01:22:48.129Z,47.82
2016-12-19T01:23:48.470Z,47.82
2016-12-19T01:24:48.494Z,48.01
2016-12-19T01:25:48.211Z,47.72
2016-12-19T01:26:48.236Z,47.34
2016-12-19T01:27:48.584Z,47.63
2016-12-19T01:28:48.609Z,47.63
2016-12-19T01:29:48.634Z,47.44
2016-12-19T01:30:48.355Z,47.44
2016-12-19T01:31:48.684Z,47.51
2016-12-19T01:32:48.713Z,47.44
2016-12-19T01:33:48.750Z,47.34
2016-12-19T01:34:48.770Z,47.34
2016-12-19T01:35:48.491Z,47.14
2016-12-19T01:36:48.815Z,47.24
2016-12-19T01:37:48.857Z,47.34
2016-12-19T01:38:48.881Z,47.24
2016-12-19T01:39:48.602Z,47.53
2016-12-19T01:40:48.939Z,47.63
2016-12-19T01:41:48.664Z,47.53
2016-12-19T01:42:48.984Z,47.44
2016-12-19T01:43:49.021Z,47.34
2016-12-19T01:44:48.752Z,47.34
2016-12-19T01:45:48.778Z,47.72
2016-12-19T01:46:48.807Z,47.63
2016-12-19T01:47:49.132Z,47.53
2016-12-19T01:48:48.857Z,47.34
2016-12-19T01:49:48.885Z,47.34
2016-12-19T01:50:49.215Z,47.31
2016-12-19T01:51:48.939Z,47.63
2016-12-19T01:52:48.959Z,47.51
2016-12-19T01:53:48.992Z,47.6
2016-12-19T01:54:49.325Z,47.24
2016-12-19T01:55:49.050Z,47.34
2016-12-19T01:56:49.079Z,47.22
2016-12-19T01:57:49.112Z,47.03
2016-12-19T01:58:49.139Z,47.34
2016-12-19T01:59:49.165Z,47.24
2016-12-19T02:00:49.490Z,47.31
2016-12-19T02:01:49.523Z,47.05
2016-12-19T02:02:49.239Z,47.05
2016-12-19T02:03:49.272Z,47.03
2016-12-19T02:04:49.296Z,47.14
2016-12-19T02:05:49.325Z,46.95
2016-12-19T02:06:49.666Z,47.24
2016-12-19T02:07:49.379Z,47.24
2016-12-19T02:08:49.419Z,47.05
2016-12-19T02:09:49.740Z,47.05
2016-12-19T02:10:49.773Z,47.14
2016-12-19T02:11:49.497Z,47.34
2016-12-19T02:12:49.830Z,46.76
2016-12-19T02:13:49.859Z,46.86
2016-12-19T02:14:49.880Z,46.86
2016-12-19T02:15:49.905Z,46.66
2016-12-19T02:16:49.629Z,46.86
2016-12-19T02:17:49.654Z,46.37
2016-12-19T02:18:49.695Z,46.37
2016-12-19T02:19:50.023Z,46.66
2016-12-19T02:20:50.044Z,46.56
2016-12-19T02:21:50.084Z,46.47
2016-12-19T02:22:49.802Z,46.86
2016-12-19T02:23:49.834Z,46.95
2016-12-19T02:24:49.856Z,46.47
2016-12-19T02:25:50.192Z,46.76
2016-12-19T02:26:50.221Z,46.76
2016-12-19T02:27:49.938Z,46.28
2016-12-19T02:28:50.267Z,46.56
2016-12-19T02:29:49.995Z,46.56
2016-12-19T02:30:50.332Z,46.37
2016-12-19T02:31:50.356Z,46.47
2016-12-19T02:32:50.077Z,46.28
2016-12-19T02:33:50.138Z,46.37
2016-12-19T02:34:50.135Z,46.47
2016-12-19T02:35:50.472Z,46.35
2016-12-19T02:36:50.497Z,46.18
2016-12-19T02:37:50.521Z,46.18
2016-12-19T02:38:50.246Z,46.56
2016-12-19T02:39:50.579Z,46.56
2016-12-19T02:40:50.608Z,46.47
2016-12-19T02:41:50.329Z,46.47
2016-12-19T02:42:50.663Z,46.37
2016-12-19T02:43:50.693Z,46.37
2016-12-19T02:44:50.718Z,46.76
2016-12-19T02:45:50.743Z,46.76
2016-12-19T02:46:50.777Z,46.76
2016-12-19T02:47:50.800Z,46.76
2016-12-19T02:48:50.825Z,46.37
2016-12-19T02:49:50.550Z,46.66
2016-12-19T02:50:50.587Z,46.37
2016-12-19T02:51:50.611Z,46.28
2016-12-19T02:52:50.641Z,46.37
2016-12-19T02:53:50.973Z,46.28
2016-12-19T02:54:50.689Z,46.28
2016-12-19T02:55:51.027Z,46.37
2016-12-19T02:56:50.751Z,46.18
2016-12-19T02:57:51.084Z,46.28
2016-12-19T02:58:50.801Z,46.37
2016-12-19T02:59:50.830Z,46.56
2016-12-19T03:00:51.166Z,46.56
2016-12-19T03:01:51.195Z,45.89
2016-12-19T03:02:50.916Z,46.28
2016-12-19T03:03:50.945Z,46.18
2016-12-19T03:04:51.273Z,46.18
2016-12-19T03:05:51.298Z,45.99
2016-12-19T03:06:51.327Z,45.99
2016-12-19T03:07:51.047Z,45.99
2016-12-19T03:08:51.389Z,46.08
2016-12-19T03:09:51.412Z,45.89
2016-12-19T03:10:51.133Z,45.79
2016-12-19T03:11:51.158Z,45.89
2016-12-19T03:12:51.192Z,45.89
2016-12-19T03:13:51.528Z,45.79
2016-12-19T03:14:51.248Z,46.08
2016-12-19T03:15:51.582Z,45.99
2016-12-19T03:16:51.606Z,46.08
2016-12-19T03:17:51.635Z,45.99
2016-12-19T03:18:51.668Z,45.99
2016-12-19T03:19:51.689Z,45.97
2016-12-19T03:20:51.714Z,45.97
2016-12-19T03:21:51.751Z,45.89
2016-12-19T03:22:51.768Z,45.89
2016-12-19T03:23:51.799Z,45.99
2016-12-19T03:24:51.846Z,46.28
2016-12-19T03:25:51.549Z,46.18
2016-12-19T03:26:51.882Z,46.15
2016-12-19T03:27:51.610Z,45.99
2016-12-19T03:28:51.676Z,46.15
2016-12-19T03:29:51.968Z,45.97
2016-12-19T03:30:51.689Z,46.18
2016-12-19T03:31:51.717Z,45.97
2016-12-19T03:32:52.058Z,45.99
2016-12-19T03:33:52.083Z,45.99
2016-12-19T03:34:52.104Z,45.68
2016-12-19T03:35:51.828Z,45.31
2016-12-19T03:36:51.857Z,45.51
2016-12-19T03:37:51.882Z,45.51
2016-12-19T03:38:51.914Z,45.6
2016-12-19T03:39:52.247Z,45.89
2016-12-19T03:40:51.966Z,45.6
2016-12-19T03:41:52.001Z,45.79
2016-12-19T03:42:52.329Z,45.7
2016-12-19T03:43:52.058Z,45.79
2016-12-19T03:44:52.079Z,45.77
2016-12-19T03:45:52.415Z,45.79
2016-12-19T03:46:52.136Z,45.79
2016-12-19T03:47:52.470Z,45.77
2016-12-19T03:48:52.502Z,45.79
2016-12-19T03:49:52.530Z,45.6
2016-12-19T03:50:52.243Z,45.99
2016-12-19T03:51:52.576Z,45.87
2016-12-19T03:52:52.605Z,45.51
2016-12-19T03:53:52.333Z,45.12
2016-12-19T03:54:52.366Z,45.31
2016-12-19T03:55:52.691Z,45.1
2016-12-19T03:56:52.416Z,45.12
2016-12-19T03:57:52.444Z,45.12
2016-12-19T03:58:52.782Z,45.2
2016-12-19T03:59:52.807Z,45.12
2016-12-19T04:00:52.523Z,45.21
2016-12-19T04:01:52.859Z,45.6
2016-12-19T04:02:52.592Z,45.31
2016-12-19T04:03:52.637Z,45.41
2016-12-19T04:04:52.942Z,45.31
2016-12-19T04:05:52.658Z,45.21
2016-12-19T04:06:52.695Z,45.21
2016-12-19T04:07:53.032Z,45.21
2016-12-19T04:08:52.750Z,45.31
2016-12-19T04:09:52.786Z,45.31
2016-12-19T04:10:52.806Z,44.93
2016-12-19T04:11:53.139Z,45.31
2016-12-19T04:12:52.864Z,45.31
2016-12-19T04:13:52.889Z,45.41
2016-12-19T04:14:52.914Z,45.21
2016-12-19T04:15:53.250Z,45.41
2016-12-19T04:16:53.280Z,45.41
2016-12-19T04:17:52.999Z,45.51
2016-12-19T04:18:53.028Z,45.41
2016-12-19T04:19:53.053Z,45.12
2016-12-19T04:20:53.390Z,45.12
2016-12-19T04:21:53.111Z,45.6
2016-12-19T04:22:53.448Z,45.21
2016-12-19T04:23:53.168Z,45.21
2016-12-19T04:24:53.202Z,45.51
2016-12-19T04:25:53.524Z,45.21
2016-12-19T04:26:53.238Z,45.21
2016-12-19T04:27:53.588Z,45.21
2016-12-19T04:28:53.308Z,45.21
2016-12-19T04:29:53.324Z,45.03
2016-12-19T04:30:53.669Z,45.2
2016-12-19T04:31:53.695Z,44.83
2016-12-19T04:32:53.722Z,45.21
2016-12-19T04:33:53.752Z,44.9
2016-12-19T04:34:53.469Z,45.1
2016-12-19T04:35:53.501Z,45.03
2016-12-19T04:36:53.528Z,44.45
2016-12-19T04:37:53.559Z,44.54
2016-12-19T04:38:53.887Z,44.35
2016-12-19T04:39:53.916Z,44.32
2016-12-19T04:40:53.636Z,44.73
2016-12-19T04:41:53.975Z,44.71
2016-12-19T04:42:53.999Z,44.71
2016-12-19T04:43:54.027Z,44.83
2016-12-19T04:44:53.748Z,44.62
2016-12-19T04:45:54.088Z,44.73
2016-12-19T04:46:54.109Z,44.81
2016-12-19T04:47:53.831Z,44.81
2016-12-19T04:48:54.167Z,44.83
2016-12-19T04:49:54.196Z,44.93
2016-12-19T04:50:54.220Z,44.81
2016-12-19T04:51:54.249Z,44.73
2016-12-19T04:52:53.974Z,44.71
2016-12-19T04:53:53.994Z,44.71
2016-12-19T04:54:54.024Z,44.71
2016-12-19T04:55:54.054Z,44.81
2016-12-19T04:56:54.081Z,44.71
2016-12-19T04:57:54.115Z,44.71
2016-12-19T04:58:54.134Z,44.81
2016-12-19T04:59:54.163Z,44.9
2016-12-19T05:00:54.192Z,44.81
2016-12-19T05:01:54.530Z,44.83
2016-12-19T05:02:54.549Z,44.81
2016-12-19T05:03:54.278Z,44.81
2016-12-19T05:04:54.607Z,44.83
2016-12-19T05:05:54.636Z,44.62
2016-12-19T05:06:54.669Z,44.9
2016-12-19T05:07:54.385Z,44.83
2016-12-19T05:08:54.714Z,44.83
2016-12-19T05:09:54.753Z,44.81
2016-12-19T05:10:54.468Z,44.54
2016-12-19T05:11:54.499Z,44.71
2016-12-19T05:12:54.829Z,44.45
2016-12-19T05:13:54.558Z,44.35
2016-12-19T05:14:54.578Z,44.45
2016-12-19T05:15:54.911Z,44.25
2016-12-19T05:16:54.952Z,44.15
2016-12-19T05:17:54.973Z,44.15
2016-12-19T05:18:54.998Z,44.04
2016-12-19T05:19:54.722Z,44.45
2016-12-19T05:20:54.743Z,44.35
2016-12-19T05:21:54.771Z,44.35
2016-12-19T05:22:54.803Z,44.13
2016-12-19T05:23:54.829Z,44.35
2016-12-19T05:24:54.854Z,44.06
2016-12-19T05:25:54.887Z,43.94
2016-12-19T05:26:55.224Z,44.23
2016-12-19T05:27:54.937Z,44.32
2016-12-19T05:28:54.969Z,44.13
2016-12-19T05:29:55.302Z,44.04
2016-12-19T05:30:55.327Z,44.06
2016-12-19T05:31:55.060Z,44.04
2016-12-19T05:32:55.389Z,44.15
2016-12-19T05:33:55.417Z,44.15
2016-12-19T05:34:55.442Z,44.13
2016-12-19T05:35:55.466Z,44.13
2016-12-19T05:36:55.187Z,44.42
2016-12-19T05:37:55.528Z,44.13
2016-12-19T05:38:55.553Z,44.15
2016-12-19T05:39:55.578Z,44.23
2016-12-19T05:40:55.302Z,44.25
2016-12-19T05:41:55.640Z,44.23
2016-12-19T05:42:55.670Z,44.25
2016-12-19T05:43:55.697Z,44.13
2016-12-19T05:44:55.414Z,44.42
2016-12-19T05:45:55.742Z,44.35
2016-12-19T05:46:55.475Z,44.25
2016-12-19T05:47:55.804Z,44.35
2016-12-19T05:48:55.828Z,44.73
2016-12-19T05:49:55.551Z,44.35
2016-12-19T05:50:55.578Z,43.96
2016-12-19T05:51:55.610Z,43.77
2016-12-19T05:52:55.631Z,43.77
2016-12-19T05:53:55.668Z,44.15
2016-12-19T05:54:55.996Z,43.96
2016-12-19T05:55:56.021Z,43.96
2016-12-19T05:56:55.754Z,43.77
2016-12-19T05:57:56.083Z,44.15
2016-12-19T05:58:56.110Z,43.67
2016-12-19T05:59:56.134Z,43.87
2016-12-19T06:00:55.852Z,43.77
2016-12-19T06:01:56.185Z,44.06
2016-12-19T06:02:56.222Z,43.77
2016-12-19T06:03:55.938Z,43.77
2016-12-19T06:04:56.271Z,43.67
2016-12-19T06:05:56.000Z,43.87
2016-12-19T06:06:56.025Z,43.77
2016-12-19T06:07:56.353Z,43.87
2016-12-19T06:08:56.078Z,44.06
2016-12-19T06:09:56.419Z,43.96
2016-12-19T06:10:56.431Z,43.96
2016-12-19T06:11:56.472Z,43.96
2016-12-19T06:12:56.497Z,43.87
2016-12-19T06:13:56.223Z,43.96
2016-12-19T06:14:56.238Z,43.87
2016-12-19T06:15:56.267Z,43.77
2016-12-19T06:16:56.604Z,43.67
2016-12-19T06:17:56.324Z,44.15
2016-12-19T06:18:56.357Z,43.96
2016-12-19T06:19:56.681Z,44.06
2016-12-19T06:20:56.710Z,43.96
2016-12-19T06:21:56.439Z,43.96
2016-12-19T06:22:56.788Z,44.15
2016-12-19T06:23:56.496Z,43.67
2016-12-19T06:24:56.835Z,43.87
2016-12-19T06:25:56.546Z,43.85
2016-12-19T06:26:56.587Z,43.94
2016-12-19T06:27:56.603Z,44.13
2016-12-19T06:28:56.945Z,43.65
2016-12-19T06:29:56.977Z,43.67
2016-12-19T06:30:56.982Z,43.37
2016-12-19T06:31:56.726Z,43.37
2016-12-19T06:32:57.058Z,43.37
2016-12-19T06:33:56.777Z,43.46
2016-12-19T06:34:57.104Z,43.27
2016-12-19T06:35:56.829Z,43.1
2016-12-19T06:36:56.861Z,43.46
2016-12-19T06:37:57.184Z,43.29
2016-12-19T06:38:56.915Z,43.19
2016-12-19T06:39:57.250Z,43.27
2016-12-19T06:40:57.264Z,43.1
2016-12-19T06:41:56.997Z,43.67
2016-12-19T06:42:57.335Z,43.48
2016-12-19T06:43:57.347Z,43.48
2016-12-19T06:44:57.387Z,43.96
2016-12-19T06:45:57.404Z,43.58
2016-12-19T06:46:57.434Z,43.77
2016-12-19T06:47:57.175Z,43.77
2016-12-19T06:48:57.491Z,43.77
2016-12-19T06:49:57.528Z,43.77
2016-12-19T06:50:57.244Z,43.67
2016-12-19T06:51:57.260Z,43.58
2016-12-19T06:52:57.301Z,43.58
2016-12-19T06:53:57.322Z,43.58
2016-12-19T06:54:57.667Z,43.87
2016-12-19T06:55:57.684Z,43.77
2016-12-19T06:56:57.413Z,43.77
2016-12-19T06:57:57.437Z,43.38
2016-12-19T06:58:57.766Z,43.58
2016-12-19T06:59:57.488Z,43.77
2016-12-19T07:00:57.828Z,43.67
2016-12-19T07:01:57.540Z,43.87
2016-12-19T07:02:57.885Z,43.96
2016-12-19T07:03:57.911Z,43.87
2016-12-19T07:04:57.943Z,44.15
2016-12-19T07:05:57.659Z,44.06
2016-12-19T07:06:57.992Z,44.06
2016-12-19T07:07:57.721Z,43.77
2016-12-19T07:08:57.742Z,43.87
2016-12-19T07:09:57.765Z,43.87
2016-12-19T07:10:58.096Z,43.87
2016-12-19T07:11:57.818Z,43.67
2016-12-19T07:12:57.840Z,43.87
2016-12-19T07:13:58.172Z,43.67
2016-12-19T07:14:58.202Z,43.77
2016-12-19T07:15:58.222Z,43.77
2016-12-19T07:16:57.954Z,43.67
2016-12-19T07:17:58.270Z,43.96
2016-12-19T07:18:58.314Z,43.67
2016-12-19T07:19:58.382Z,43.77
2016-12-19T07:20:58.424Z,43.77
2016-12-19T07:21:58.396Z,44.15
2016-12-19T07:22:58.419Z,43.77
2016-12-19T07:23:58.473Z,43.77
2016-12-19T07:24:58.179Z,43.77
2016-12-19T07:25:58.499Z,44.06
2016-12-19T07:26:58.523Z,43.58
2016-12-19T07:27:58.556Z,43.58
2016-12-19T07:28:58.305Z,43.77
2016-12-19T07:29:58.622Z,43.96
2016-12-19T07:30:58.651Z,43.67
2016-12-19T07:31:58.670Z,43.96
2016-12-19T07:32:58.748Z,43.87
2016-12-19T07:33:58.725Z,43.87
2016-12-19T07:34:58.451Z,43.96
2016-12-19T07:35:58.776Z,44.25
2016-12-19T07:36:58.839Z,44.35
2016-12-19T07:37:58.568Z,44.45
2016-12-19T07:38:58.861Z,44.45
2016-12-19T07:39:58.911Z,44.45
2016-12-19T07:40:58.921Z,44.35
2016-12-19T07:41:58.944Z,44.45
2016-12-19T07:42:58.677Z,44.64
2016-12-19T07:43:59.006Z,44.35
2016-12-19T07:44:59.033Z,44.54
2016-12-19T07:45:59.088Z,44.35
2016-12-19T07:46:59.089Z,44.06
2016-12-19T07:47:59.121Z,44.15
2016-12-19T07:48:59.156Z,44.06
2016-12-19T07:49:58.902Z,43.87
2016-12-19T07:50:59.198Z,44.06
2016-12-19T07:51:58.927Z,43.58
2016-12-19T07:52:59.254Z,43.87
2016-12-19T07:53:59.290Z,43.96
2016-12-19T07:54:59.013Z,43.77
2016-12-19T07:55:59.358Z,44.15
2016-12-19T07:56:59.413Z,43.67
2016-12-19T07:57:59.389Z,43.67
2016-12-19T07:58:59.477Z,43.67
2016-12-19T07:59:59.453Z,43.67
2016-12-19T08:00:59.188Z,43.87
2016-12-19T08:01:59.205Z,43.67
2016-12-19T08:02:59.539Z,43.77
2016-12-19T08:03:59.294Z,43.77
2016-12-19T08:04:59.588Z,43.77
2016-12-19T08:05:59.317Z,43.67
2016-12-19T08:06:59.345Z,43.67
2016-12-19T08:07:59.667Z,43.77
2016-12-19T08:08:59.693Z,43.67
2016-12-19T08:09:59.726Z,43.77
2016-12-19T08:10:59.462Z,43.67
2016-12-19T08:11:59.806Z,43.67
2016-12-19T08:12:59.810Z,43.77
2016-12-19T08:13:59.550Z,43.77
2016-12-19T08:14:59.860Z,43.87
2016-12-19T08:15:59.592Z,43.77
2016-12-19T08:16:59.919Z,43.87
2016-12-19T08:17:59.945Z,43.87
2016-12-19T08:19:00.022Z,43.87
2016-12-19T08:19:59.702Z,43.77
2016-12-19T08:21:00.028Z,43.77
2016-12-19T08:21:59.761Z,43.87
2016-12-19T08:22:59.787Z,43.77
2016-12-19T08:24:00.249Z,43.96
2016-12-19T08:24:59.853Z,44.06
2016-12-19T08:26:00.633Z,43.96
2016-12-19T08:27:00.751Z,43.87
2016-12-19T08:28:00.525Z,44.15
2016-12-19T08:29:00.520Z,43.96
2016-12-19T08:30:00.579Z,43.96
2016-12-19T08:31:00.498Z,43.96
2016-12-19T08:32:00.795Z,43.87
2016-12-19T08:33:00.942Z,43.87
2016-12-19T08:34:00.831Z,44.06
2016-12-19T08:35:00.992Z,43.87
2016-12-19T08:36:00.949Z,43.67
2016-12-19T08:37:01.070Z,43.87
2016-12-19T08:38:01.102Z,43.77
2016-12-19T08:39:01.101Z,43.87
2016-12-19T08:40:01.137Z,43.77
2016-12-19T08:41:01.184Z,43.67
2016-12-19T08:42:00.896Z,43.77
2016-12-19T08:43:01.240Z,44.06
2016-12-19T08:44:00.949Z,44.06
2016-12-19T08:45:01.265Z,43.87
2016-12-19T08:46:01.016Z,43.87
2016-12-19T08:47:01.354Z,44.15
2016-12-19T08:48:00.645Z,43.67
2016-12-19T08:49:01.415Z,43.96
2016-12-19T08:50:01.162Z,43.87
2016-12-19T08:51:01.386Z,43.87
2016-12-19T08:52:01.284Z,43.87
2016-12-19T08:53:00.977Z,43.96
2016-12-19T08:54:01.432Z,44.15
2016-12-19T08:55:01.483Z,43.96
2016-12-19T08:56:01.289Z,44.06
2016-12-19T08:57:01.597Z,43.96
2016-12-19T08:58:01.072Z,44.06
2016-12-19T08:59:01.204Z,43.87
2016-12-19T09:00:01.146Z,44.06
2016-12-19T09:01:01.016Z,43.77
2016-12-19T09:02:00.874Z,43.96
2016-12-19T09:03:01.468Z,44.06
2016-12-19T09:04:01.237Z,43.87
2016-12-19T09:05:01.473Z,43.77
2016-12-19T09:06:01.519Z,44.06
2016-12-19T09:07:01.017Z,43.87
2016-12-19T09:08:01.403Z,43.58
2016-12-19T09:09:01.395Z,43.96
2016-12-19T09:10:01.359Z,43.67
2016-12-19T09:11:01.690Z,43.67
2016-12-19T09:12:01.983Z,43.87
2016-12-19T09:13:01.196Z,43.87
2016-12-19T09:14:02.030Z,43.77
2016-12-19T09:15:01.725Z,43.77
2016-12-19T09:16:01.563Z,43.67
2016-12-19T09:17:01.505Z,43.67
2016-12-19T09:18:01.781Z,43.87
2016-12-19T09:19:01.357Z,43.67
2016-12-19T09:20:01.724Z,43.77
2016-12-19T09:21:01.805Z,43.67
2016-12-19T09:22:02.311Z,43.77
2016-12-19T09:23:01.907Z,43.58
2016-12-19T09:24:02.263Z,43.67
2016-12-19T09:25:02.071Z,43.96
2016-12-19T09:26:02.012Z,43.87
2016-12-19T09:27:02.361Z,43.87
2016-12-19T09:28:02.115Z,43.87
2016-12-19T09:29:02.385Z,43.87
2016-12-19T09:30:01.889Z,44.15
2016-12-19T09:31:02.168Z,43.87
2016-12-19T09:32:02.289Z,44.06
2016-12-19T09:33:02.618Z,43.96
2016-12-19T09:34:02.288Z,43.96
2016-12-19T09:35:02.371Z,43.77
2016-12-19T09:36:02.260Z,43.67
2016-12-19T09:37:02.287Z,43.87
2016-12-19T09:38:02.261Z,43.77
2016-12-19T09:39:02.200Z,43.77
2016-12-19T09:40:02.462Z,43.77
2016-12-19T09:41:01.975Z,43.77
2016-12-19T09:42:02.301Z,43.77
2016-12-19T09:43:02.334Z,43.67
2016-12-19T09:44:02.062Z,43.87
2016-12-19T09:45:02.391Z,43.29
2016-12-19T09:46:02.424Z,43.67
2016-12-19T09:47:02.140Z,43.67
2016-12-19T09:48:02.169Z,43.29
2016-12-19T09:49:02.494Z,43.77
2016-12-19T09:50:02.535Z,43.67
2016-12-19T09:51:02.243Z,43.29
2016-12-19T09:52:02.281Z,43.87
2016-12-19T09:53:02.301Z,44.15
2016-12-19T09:54:02.338Z,43.87
2016-12-19T09:55:02.662Z,43.87
2016-12-19T09:56:02.387Z,44.06
2016-12-19T09:57:02.724Z,43.96
2016-12-19T09:58:02.448Z,43.96
2016-12-19T09:59:02.778Z,43.96
2016-12-19T10:00:02.811Z,43.96
2016-12-19T10:01:02.528Z,44.06
2016-12-19T10:02:02.564Z,43.87
2016-12-19T10:03:02.593Z,43.77
2016-12-19T10:04:02.610Z,43.77
2016-12-19T10:05:02.638Z,43.87
2016-12-19T10:06:02.667Z,43.77
2016-12-19T10:07:02.700Z,43.67
2016-12-19T10:08:02.724Z,43.6
2016-12-19T10:09:02.758Z,43.58
2016-12-19T10:10:03.091Z,43.58
2016-12-19T10:11:03.115Z,43.67
2016-12-19T10:12:02.838Z,43.58
2016-12-19T10:13:03.168Z,43.77
2016-12-19T10:14:02.893Z,43.58
2016-12-19T10:15:03.230Z,43.87
2016-12-19T10:16:03.248Z,43.87
2016-12-19T10:17:03.280Z,43.67
2016-12-19T10:18:03.009Z,43.67
2016-12-19T10:19:03.346Z,42.9
2016-12-19T10:20:03.067Z,43.38
2016-12-19T10:21:03.091Z,43.38
2016-12-19T10:22:03.420Z,43.48
2016-12-19T10:23:03.145Z,43.29
2016-12-19T10:24:03.481Z,43.29
2016-12-19T10:25:03.523Z,43.38
2016-12-19T10:26:03.531Z,43.48
2016-12-19T10:27:03.260Z,43.38
2016-12-19T10:28:03.288Z,43.29
2016-12-19T10:29:03.625Z,43.19
2016-12-19T10:30:03.346Z,43.1
2016-12-19T10:31:03.675Z,43.12
2016-12-19T10:32:03.396Z,43.1
2016-12-19T10:33:03.724Z,43.29
2016-12-19T10:34:03.761Z,43.29
2016-12-19T10:35:03.487Z,43.29
2016-12-19T10:36:03.814Z,43.1
2016-12-19T10:37:03.536Z,43.29
2016-12-19T10:38:03.873Z,43.38
2016-12-19T10:39:03.594Z,43.1
2016-12-19T10:40:03.622Z,43.19
2016-12-19T10:41:03.955Z,43.29
2016-12-19T10:42:03.984Z,43.19
2016-12-19T10:43:03.700Z,43.19
2016-12-19T10:44:04.033Z,43.19
2016-12-19T10:45:04.062Z,43.48
2016-12-19T10:46:03.791Z,43
2016-12-19T10:47:03.815Z,43.29
2016-12-19T10:48:04.148Z,43.29
2016-12-19T10:49:03.881Z,43.19
2016-12-19T10:50:04.210Z,43.19
2016-12-19T10:51:04.238Z,43.29
2016-12-19T10:52:04.267Z,43.38
2016-12-19T10:53:04.292Z,43.29
2016-12-19T10:54:04.321Z,43.29
2016-12-19T10:55:04.349Z,43.19
2016-12-19T10:56:04.070Z,43.38
2016-12-19T10:57:04.099Z,43.29
2016-12-19T10:58:04.436Z,43.19
2016-12-19T10:59:04.464Z,43.19
2016-12-19T11:00:04.189Z,43.29
2016-12-19T11:01:04.214Z,43.29
2016-12-19T11:02:04.247Z,43.29
2016-12-19T11:03:04.568Z,43.1
2016-12-19T11:04:04.600Z,43.12
2016-12-19T11:05:04.629Z,43.1
2016-12-19T11:06:04.653Z,43
2016-12-19T11:07:04.683Z,43.19
2016-12-19T11:08:04.707Z,42.61
2016-12-19T11:09:04.434Z,43
2016-12-19T11:10:04.465Z,43
2016-12-19T11:11:04.489Z,42.61
2016-12-19T11:12:04.518Z,42.71
2016-12-19T11:13:04.547Z,43.19
2016-12-19T11:14:04.880Z,42.61
2016-12-19T11:15:04.596Z,42.9
2016-12-19T11:16:04.938Z,43.02
2016-12-19T11:17:04.661Z,43.58
2016-12-19T11:18:04.687Z,43.48
2016-12-19T11:19:04.715Z,43.67
2016-12-19T11:20:04.739Z,43.48
2016-12-19T11:21:04.768Z,42.9
2016-12-19T11:22:04.797Z,43
2016-12-19T11:23:05.130Z,43.19
2016-12-19T11:24:04.860Z,43.1
2016-12-19T11:25:05.192Z,43
2016-12-19T11:26:04.921Z,42.9
2016-12-19T11:27:04.937Z,43
2016-12-19T11:28:05.000Z,42.8
2016-12-19T11:29:05.299Z,43.1
2016-12-19T11:30:05.073Z,43
2016-12-19T11:31:05.352Z,42.93
2016-12-19T11:32:05.381Z,43.1
2016-12-19T11:33:05.410Z,42.73
2016-12-19T11:34:05.136Z,42.9
2016-12-19T11:35:05.467Z,42.9
2016-12-19T11:36:05.192Z,43.58
2016-12-19T11:37:05.522Z,42.71
2016-12-19T11:38:05.546Z,42.71
2016-12-19T11:39:05.270Z,42.9
2016-12-19T11:40:05.615Z,43.58
2016-12-19T11:41:05.632Z,43.48
2016-12-19T11:42:05.662Z,43.58
2016-12-19T11:43:05.693Z,42.9
2016-12-19T11:44:05.723Z,42.71
2016-12-19T11:45:05.442Z,43.19
2016-12-19T11:46:05.780Z,43.58
2016-12-19T11:47:05.496Z,42.9
2016-12-19T11:48:05.821Z,42.83
2016-12-19T11:49:05.558Z,42.8
2016-12-19T11:50:05.879Z,43.1
2016-12-19T11:51:05.925Z,43.1
2016-12-19T11:52:05.640Z,43
2016-12-19T11:53:05.669Z,42.93
2016-12-19T11:54:05.998Z,43.02
2016-12-19T11:55:06.029Z,43.12
2016-12-19T11:56:05.753Z,42.93
2016-12-19T11:57:06.089Z,42.9
2016-12-19T11:58:06.105Z,42.93
2016-12-19T11:59:05.834Z,43.02
2016-12-19T12:00:05.858Z,43.29
2016-12-19T12:01:06.196Z,42.61
2016-12-19T12:02:05.908Z,43.38
2016-12-19T12:03:05.949Z,43.29
2016-12-19T12:04:05.969Z,42.61
2016-12-19T12:05:06.310Z,43.29
2016-12-19T12:06:06.035Z,43.29
2016-12-19T12:07:06.364Z,43.38
2016-12-19T12:08:06.393Z,43.19
2016-12-19T12:09:06.410Z,43.19
2016-12-19T12:10:06.445Z,43
2016-12-19T12:11:06.165Z,42.8
2016-12-19T12:12:06.203Z,42.8
2016-12-19T12:13:06.220Z,43
2016-12-19T12:14:06.253Z,43.1
2016-12-19T12:15:06.582Z,42.9
2016-12-19T12:16:06.307Z,43.19
2016-12-19T12:17:06.644Z,43
2016-12-19T12:18:06.414Z,43.38
2016-12-19T12:19:06.689Z,43
2016-12-19T12:20:06.413Z,43.1
2016-12-19T12:21:06.446Z,43
2016-12-19T12:22:06.775Z,43
2016-12-19T12:23:06.808Z,43.1
2016-12-19T12:24:06.532Z,42.9
2016-12-19T12:25:06.866Z,43.19
2016-12-19T12:26:06.590Z,42.71
2016-12-19T12:27:06.619Z,42.9
2016-12-19T12:28:06.952Z,43
2016-12-19T12:29:06.673Z,43
2016-12-19T12:30:06.697Z,42.8
2016-12-19T12:31:07.024Z,42.52
2016-12-19T12:32:07.058Z,42.61
2016-12-19T12:33:06.788Z,43
2016-12-19T12:34:06.812Z,42.71
2016-12-19T12:35:07.143Z,42.8
2016-12-19T12:36:07.178Z,42.71
2016-12-19T12:37:07.203Z,43.1
2016-12-19T12:38:07.232Z,43.29
2016-12-19T12:39:06.944Z,42.8
2016-12-19T12:40:07.289Z,43.58
2016-12-19T12:41:07.002Z,42.71
2016-12-19T12:42:07.031Z,43.19
2016-12-19T12:43:07.371Z,43.58
2016-12-19T12:44:07.396Z,42.71
2016-12-19T12:45:07.113Z,42.9
2016-12-19T12:46:07.450Z,43
2016-12-19T12:47:07.179Z,43
2016-12-19T12:48:07.204Z,43.19
2016-12-19T12:49:07.544Z,42.8
2016-12-19T12:50:07.584Z,42.9
2016-12-19T12:51:07.585Z,43.29
2016-12-19T12:52:07.618Z,43.19
2016-12-19T12:53:07.635Z,43
2016-12-19T12:54:07.368Z,43
2016-12-19T12:55:07.704Z,43
2016-12-19T12:56:07.726Z,43.19
2016-12-19T12:57:07.459Z,43.21